Time;durP1;ratioP1;P1;durP2;ratioP2;P2;SDS_P1;SDS_P2;PMS_P1;PMS_P2;Temp;Humidity;BMP_temperature;BMP_pressure;BME280_temperature;BME280_humidity;BME280_pressure;Samples;Min_cycle;Max_cycle;Signal;HPM_P1;HPM_P2
2023/03/01 06:10:24;;;;;;;;;25.50;24.00;;;;;5.01;44.22;67413.63;4983782;28;45708;-95
2023/03/01 06:12:50;;;;;;;;;22.75;22.75;;;;;4.71;44.88;67439.78;4957272;28;45333;-85
2023/03/01 06:15:16;;;;;;;;;23.75;21.00;;;;;4.88;44.90;67616.34;4943295;28;45460;-85
2023/03/01 06:17:44;;;;;;;;;27.25;23.00;;;;;4.30;44.63;67366.56;4943106;28;45559;-84
2023/03/01 06:20:24;;;;;;;;;26.75;25.00;;;;;5.05;45.00;67500.13;4945050;28;48492;-85
2023/03/01 06:22:50;;;;;;;;;31.50;26.25;;;;;5.03;44.59;67534.47;4941004;28;45325;-84
2023/03/01 06:25:18;;;;;;;;;26.50;26.00;;;;;4.44;44.86;67419.09;4954916;28;45409;-85
2023/03/01 06:27:45;;;;;;;;;29.25;26.75;;;;;4.95;45.00;67487.78;4939167;28;45644;-86
2023/03/01 06:30:13;;;;;;;;;29.25;25.25;;;;;4.58;45.33;67432.94;4941922;28;46224;-85
2023/03/01 06:32:42;;;;;;;;;25.50;23.50;;;;;4.99;45.04;67519.28;4959325;28;45555;-85
2023/03/01 06:35:10;;;;;;;;;27.50;23.50;;;;;4.21;45.30;67367.06;4958489;28;45546;-85
2023/03/01 06:37:35;;;;;;;;;36.00;29.50;;;;;4.99;45.44;67500.38;4957028;28;45536;-85
2023/03/01 06:40:07;;;;;;;;;28.00;26.50;;;;;4.67;45.44;67518.88;4964930;28;45581;-85
2023/03/01 06:42:35;;;;;;;;;34.25;29.00;;;;;4.33;45.40;67370.13;4960232;28;45321;-85
2023/03/01 06:45:01;;;;;;;;;29.25;28.75;;;;;4.57;45.00;67429.16;4942501;28;45479;-85
2023/03/01 06:47:27;;;;;;;;;36.00;31.25;;;;;4.47;45.27;67399.06;4960131;28;45392;-85
2023/03/01 06:49:52;;;;;;;;;31.50;27.25;;;;;4.61;45.46;67446.34;4940424;28;45958;-85
2023/03/01 06:52:17;;;;;;;;;29.00;29.00;;;;;4.90;45.67;67414.41;4951933;28;45385;-87
2023/03/01 06:54:43;;;;;;;;;36.25;28.50;;;;;4.83;45.33;67697.44;4958605;28;45404;-85
2023/03/01 06:57:08;;;;;;;;;30.50;29.75;;;;;4.62;45.89;67507.75;4953225;28;45452;-87
2023/03/01 06:59:33;;;;;;;;;38.00;35.25;;;;;4.69;45.30;67455.75;4941514;28;47311;-85
2023/03/01 07:01:59;;;;;;;;;33.75;32.00;;;;;4.96;45.56;67502.06;4952514;28;45502;-85
2023/03/01 07:04:24;;;;;;;;;33.00;27.50;;;;;3.66;45.87;67279.50;4954120;28;45454;-87
2023/03/01 07:06:54;;;;;;;;;34.00;30.25;;;;;4.14;45.61;67549.19;4958245;28;45408;-87
2023/03/01 07:09:23;;;;;;;;;28.25;23.75;;;;;4.62;45.59;67340.19;4950261;28;45625;-87
2023/03/01 07:11:49;;;;;;;;;30.00;27.25;;;;;3.48;45.55;67206.69;4959937;28;45385;-88
2023/03/01 07:14:15;;;;;;;;;29.50;28.50;;;;;4.33;45.79;67406.16;4956520;28;45552;-87
2023/03/01 07:16:40;;;;;;;;;36.75;31.75;;;;;4.98;46.05;67444.75;4958679;28;45512;-88
2023/03/01 07:19:06;;;;;;;;;33.25;28.50;;;;;4.77;45.99;67480.88;4958066;28;45426;-87
2023/03/01 07:21:31;;;;;;;;;80.25;63.75;;;;;5.13;45.51;67414.06;4956833;28;45278;-87
2023/03/01 07:23:57;;;;;;;;;42.25;36.50;;;;;4.91;45.38;67483.66;4958488;28;45386;-87
2023/03/01 07:26:23;;;;;;;;;35.25;34.00;;;;;4.12;45.66;67429.13;4958095;28;45699;-88
2023/03/01 07:28:48;;;;;;;;;32.25;31.00;;;;;5.20;45.71;67679.09;4958488;28;45523;-87
2023/03/01 07:31:14;;;;;;;;;36.00;34.25;;;;;4.91;45.49;67517.13;4958355;28;45785;-88
2023/03/01 07:33:40;;;;;;;;;31.50;30.25;;;;;5.21;45.20;67525.66;4956631;28;45356;-88
2023/03/01 07:36:06;;;;;;;;;25.25;25.25;;;;;4.49;45.58;67325.50;4959180;28;45497;-86
2023/03/01 07:38:31;;;;;;;;;36.75;34.50;;;;;3.94;45.22;67351.03;4958197;28;48205;-88
2023/03/01 07:41:02;;;;;;;;;34.00;28.75;;;;;5.39;45.33;67606.56;4963106;28;45564;-88
2023/03/01 07:43:31;;;;;;;;;35.00;31.00;;;;;5.07;45.26;67525.50;4957316;28;45489;-87
2023/03/01 07:46:00;;;;;;;;;30.25;25.50;;;;;4.29;45.42;67365.41;4958197;28;45496;-88
2023/03/01 07:48:26;;;;;;;;;31.00;30.25;;;;;5.09;44.93;67506.91;4956228;28;46093;-88
2023/03/01 07:50:51;;;;;;;;;34.00;32.00;;;;;4.94;45.10;67525.91;4958010;28;45396;-88
2023/03/01 07:53:17;;;;;;;;;27.25;24.75;;;;;5.60;44.97;67581.50;4956687;28;45914;-88
2023/03/01 07:55:42;;;;;;;;;40.00;35.00;;;;;5.34;44.92;67459.72;4957364;28;45574;-87
2023/03/01 07:58:07;;;;;;;;;29.25;26.75;;;;;5.74;44.73;67439.44;4956254;28;45487;-88
2023/03/01 08:00:33;;;;;;;;;36.50;29.25;;;;;4.35;44.68;67265.16;4955353;28;45523;-88
2023/03/01 08:03:02;;;;;;;;;34.25;32.50;;;;;5.86;44.56;67524.38;4974920;28;44800;-96
2023/03/01 08:05:29;;;;;;;;;31.00;27.00;;;;;5.15;44.80;67532.31;4977574;28;44800;-96
2023/03/01 08:07:55;;;;;;;;;43.25;36.50;;;;;3.81;44.50;67472.84;4975063;28;47672;-96
2023/03/01 08:10:20;;;;;;;;;37.00;32.00;;;;;4.80;44.59;67617.97;4962642;28;44959;-96
2023/03/01 08:12:46;;;;;;;;;31.25;30.25;;;;;4.00;44.18;67237.78;4973625;28;45367;-96
2023/03/01 08:15:12;;;;;;;;;27.75;24.50;;;;;4.16;44.12;67300.44;4979146;28;44864;-96
2023/03/01 08:17:38;;;;;;;;;34.00;32.25;;;;;5.94;43.62;67386.88;4968187;28;46824;-88
2023/03/01 08:20:06;;;;;;;;;38.00;30.50;;;;;6.03;44.13;67523.41;4959164;28;45369;-90
2023/03/01 08:22:32;;;;;;;;;35.75;31.00;;;;;6.16;43.76;67530.25;4977363;28;45498;-89
2023/03/01 08:24:57;;;;;;;;;39.75;32.75;;;;;5.43;43.42;67800.00;4971734;28;45704;-88
2023/03/01 08:27:23;;;;;;;;;30.25;28.75;;;;;6.40;43.27;67741.69;4958988;28;45579;-89
2023/03/01 08:29:48;;;;;;;;;35.75;33.75;;;;;6.91;43.34;67682.44;4958181;28;45496;-89
2023/03/01 08:32:13;;;;;;;;;34.25;30.50;;;;;6.34;42.71;67606.56;4958729;28;46044;-89
2023/03/01 08:34:39;;;;;;;;;34.25;33.00;;;;;6.58;42.78;67641.53;4941264;28;45449;-88
2023/03/01 08:37:04;;;;;;;;;38.00;34.00;;;;;6.70;42.22;67611.00;4958538;28;45748;-88
2023/03/01 08:39:30;;;;;;;;;38.00;30.75;;;;;6.82;42.60;67652.88;4941012;28;46004;-89
2023/03/01 08:41:55;;;;;;;;;33.00;29.50;;;;;7.34;42.02;67718.81;4958756;28;45273;-88
2023/03/01 08:44:21;;;;;;;;;29.00;28.00;;;;;7.13;42.21;67680.91;4956803;28;45741;-91
2023/03/01 08:49:28;;;;;;;;;34.50;33.00;;;;;7.49;41.72;67754.31;5311493;23;44790;-94
2023/03/01 08:51:54;;;;;;;;;18.75;14.25;;;;;6.61;41.73;67778.44;5008846;28;45487;-94
2023/03/01 08:54:21;;;;;;;;;28.50;26.75;;;;;7.57;41.94;67739.50;5019410;28;45572;-93
2023/03/01 08:56:48;;;;;;;;;36.00;31.00;;;;;6.68;41.28;67526.66;5017411;28;46878;-93
2023/03/01 08:59:15;;;;;;;;;29.75;29.75;;;;;7.87;41.41;67790.06;5001203;28;45312;-95
2023/03/01 09:01:43;;;;;;;;;36.25;31.50;;;;;6.78;41.35;67772.22;5008365;28;45342;-89
2023/03/01 09:04:09;;;;;;;;;33.50;31.50;;;;;7.26;41.01;67619.38;5004032;28;45530;-90
2023/03/01 09:06:35;;;;;;;;;72.50;55.75;;;;;7.82;40.66;67779.50;5003963;28;47199;-93
2023/03/01 09:09:02;;;;;;;;;31.25;30.75;;;;;7.63;40.85;67703.88;5015412;28;45319;-89
2023/03/01 09:11:28;;;;;;;;;32.75;30.25;;;;;8.28;40.46;67810.91;5025300;28;45380;-90
2023/03/01 09:13:53;;;;;;;;;32.50;27.25;;;;;7.71;40.55;67671.78;4998352;28;45695;-88
2023/03/01 09:16:20;;;;;;;;;31.50;26.75;;;;;8.02;40.51;67778.78;5016868;28;46427;-89
2023/03/01 09:18:50;;;;;;;;;31.50;30.25;;;;;8.47;40.49;67822.22;5013007;28;45511;-89
2023/03/01 09:21:16;;;;;;;;;28.50;26.00;;;;;8.54;39.83;67854.19;5031865;28;45479;-88
2023/03/01 09:23:44;;;;;;;;;30.25;26.00;;;;;7.95;40.08;67736.31;5028228;28;45488;-88
2023/03/01 09:26:13;;;;;;;;;29.50;28.00;;;;;6.98;39.88;67824.72;5014182;28;47278;-88
2023/03/01 09:28:40;;;;;;;;;29.25;28.75;;;;;6.90;39.78;67915.13;5036998;28;45510;-93
2023/03/01 09:31:06;;;;;;;;;33.00;30.50;;;;;8.74;39.81;67800.78;5013206;28;45940;-95
2023/03/01 09:33:32;;;;;;;;;32.50;30.25;;;;;8.24;39.46;67764.06;5020880;28;45378;-91
2023/03/01 09:36:03;;;;;;;;;33.75;29.50;;;;;6.96;39.14;67522.78;5023833;28;47616;-95
2023/03/01 09:38:32;;;;;;;;;30.25;28.00;;;;;7.00;39.33;67550.56;5021312;28;45537;-94
2023/03/01 09:40:59;;;;;;;;;33.50;30.50;;;;;7.55;38.91;67979.72;5025455;28;45537;-93
2023/03/01 09:46:40;;;;;;;;;31.50;29.50;;;;;7.04;38.63;67749.16;5353624;22;45469;-94
2023/03/01 11:45:28;;;;;;;;;30.67;22.67;;;;;23.84;21.03;69059.16;5251231;22;46565;-88
2023/03/01 11:48:05;;;;;;;;;23.33;22.33;;;;;24.24;21.08;69170.91;5001346;28;45916;-88
2023/03/01 11:50:44;;;;;;;;;24.67;22.33;;;;;24.28;20.62;69134.53;5013313;28;45421;-87
2023/03/01 11:53:30;;;;;;;;;25.33;21.33;;;;;24.26;20.96;69183.53;5009179;28;45564;-88
2023/03/01 11:55:55;;;;;;;;;26.67;22.00;;;;;24.41;20.09;69141.88;4995042;28;47762;-86
2023/03/01 11:58:53;;;;;;;;;25.33;22.33;;;;;23.95;20.63;69124.16;5014985;28;45272;-86
2023/03/01 12:01:36;;;;;;;;;26.00;23.33;;;;;23.88;20.79;69204.97;5014473;28;45514;-87
2023/03/01 12:04:32;;;;;;;;;23.00;19.67;;;;;24.11;20.40;69150.66;4990094;28;45608;-87
2023/03/01 12:07:00;;;;;;;;;26.00;24.67;;;;;24.17;20.63;69149.69;5011657;28;45423;-87
2023/03/01 12:09:38;;;;;;;;;21.00;18.67;;;;;23.64;20.44;69052.78;4997763;28;45478;-87
2023/03/01 12:12:22;;;;;;;;;28.00;24.33;;;;;24.28;20.29;69156.75;5011682;28;45504;-89
2023/03/01 12:15:07;;;;;;;;;19.33;19.33;;;;;24.10;19.99;69063.00;5013734;28;45454;-89
2023/03/01 12:17:55;;;;;;;;;25.00;22.67;;;;;23.88;20.15;69153.03;5012755;28;47477;-88
2023/03/01 12:20:35;;;;;;;;;27.33;23.67;;;;;23.97;20.52;69134.59;5009464;28;45581;-87
2023/03/01 12:23:23;;;;;;;;;22.67;22.00;;;;;23.73;20.60;69157.97;5005438;28;45531;-88
2023/03/01 12:25:58;;;;;;;;;24.67;22.33;;;;;23.11;20.87;69020.75;4999902;28;45702;-88
2023/03/01 12:28:48;;;;;;;;;26.67;24.67;;;;;22.93;20.83;69054.47;4996452;28;48263;-88
2023/03/01 12:31:26;;;;;;;;;27.67;24.33;;;;;22.97;20.76;69070.00;5012714;28;46875;-88
2023/03/01 12:34:19;;;;;;;;;21.00;21.00;;;;;22.29;21.02;68987.75;4998296;28;45515;-86
2023/03/01 12:37:01;;;;;;;;;21.00;19.67;;;;;22.53;20.88;69043.19;5015830;28;45391;-86
2023/03/01 12:39:32;;;;;;;;;13.67;13.67;;;;;21.98;21.05;69019.41;5002039;28;45485;-87
2023/03/01 12:42:31;;;;;;;;;28.33;26.67;;;;;22.06;21.89;69022.94;4999407;28;45402;-85
2023/03/01 12:45:11;;;;;;;;;29.33;24.33;;;;;21.89;21.51;68992.56;5014389;28;45479;-84
2023/03/01 12:47:56;;;;;;;;;29.33;22.33;;;;;21.12;22.01;68954.59;5016214;28;45482;-88
2023/03/01 12:50:28;;;;;;;;;25.67;23.00;;;;;20.50;21.91;68893.44;5014143;28;46463;-87
2023/03/01 12:52:56;;;;;;;;;25.67;22.67;;;;;20.99;22.62;68977.38;4983164;28;45591;-87
2023/03/01 12:55:35;;;;;;;;;26.33;24.33;;;;;20.76;22.40;68958.09;5008841;28;45568;-88
2023/03/01 12:58:01;;;;;;;;;23.67;21.00;;;;;20.60;22.99;68934.31;5000649;28;45573;-88
2023/03/01 13:01:05;;;;;;;;;27.67;24.00;;;;;20.35;23.20;68916.53;5011817;28;45718;-87
2023/03/01 13:03:42;;;;;;;;;23.67;20.33;;;;;20.06;22.70;68901.44;4901951;28;45579;-88
2023/03/01 13:06:15;;;;;;;;;26.33;23.67;;;;;19.82;23.36;68868.75;4896756;28;45581;-86
2023/03/01 13:08:47;;;;;;;;;23.33;21.00;;;;;19.46;23.71;68850.75;4913544;28;45580;-87
2023/03/01 13:11:20;;;;;;;;;24.00;20.67;;;;;19.55;23.89;68861.44;4917097;28;45447;-88
2023/03/01 13:13:46;;;;;;;;;25.33;22.67;;;;;18.18;24.22;68675.56;4916827;28;45435;-87
2023/03/01 13:16:29;;;;;;;;;23.33;22.00;;;;;19.21;24.31;68813.00;4900469;28;45365;-88
2023/03/01 13:19:17;;;;;;;;;26.00;23.33;;;;;18.49;24.41;68729.88;4933379;28;45444;-88
2023/03/01 13:21:46;;;;;;;;;29.00;27.33;;;;;19.03;24.40;68806.22;4916527;28;46281;-87
2023/03/01 13:24:34;;;;;;;;;20.00;19.33;;;;;18.14;24.68;68674.09;4900863;28;45483;-88
2023/03/01 13:27:05;;;;;;;;;27.00;25.33;;;;;18.94;24.49;68782.75;4917279;28;45541;-89
2023/03/01 13:29:45;;;;;;;;;30.33;27.00;;;;;18.64;25.05;68714.97;4901334;28;45453;-89
2023/03/01 13:32:33;;;;;;;;;25.33;24.33;;;;;18.14;24.84;68874.81;4916913;28;45580;-88
2023/03/01 13:35:01;;;;;;;;;25.33;20.67;;;;;18.61;24.90;68684.63;4916589;28;45337;-88
2023/03/01 13:37:33;;;;;;;;;24.33;24.33;;;;;18.62;24.89;68750.09;4954807;28;45497;-88
2023/03/01 13:40:04;;;;;;;;;23.00;22.33;;;;;17.47;24.77;68726.81;4992600;28;45608;-88
2023/03/01 13:42:32;;;;;;;;;21.00;18.67;;;;;18.74;25.20;68781.00;4996161;28;45901;-88
2023/03/01 13:44:57;;;;;;;;;28.33;22.67;;;;;17.05;24.92;68448.41;5007922;28;45363;-88
2023/03/01 13:47:23;;;;;;;;;28.33;26.00;;;;;17.38;25.04;68742.88;4991713;28;45450;-89
2023/03/01 13:49:57;;;;;;;;;37.67;32.67;;;;;18.56;25.11;68787.00;5008722;28;45514;-88
2023/03/01 13:52:34;;;;;;;;;27.67;22.33;;;;;18.50;25.41;68739.72;5011209;28;45415;-86
2023/03/01 13:55:01;;;;;;;;;27.00;25.33;;;;;17.87;25.21;68604.63;4998478;28;45449;-88
2023/03/01 13:57:33;;;;;;;;;21.67;21.67;;;;;18.24;25.80;68779.06;5006403;28;45387;-88
2023/03/01 13:59:59;;;;;;;;;28.33;23.67;;;;;16.81;25.81;68586.16;4996887;28;45602;-89
2023/03/01 14:02:24;;;;;;;;;26.00;25.33;;;;;18.01;25.14;68591.78;4982592;28;48085;-96
2023/03/01 14:05:00;;;;;;;;;22.67;20.33;;;;;16.75;25.86;68592.38;5092106;23;45489;-93
2023/03/01 14:07:29;;;;;;;;;29.33;23.67;;;;;15.79;26.22;68482.16;4988615;28;46549;-94
2023/03/01 14:10:08;;;;;;;;;29.33;27.00;;;;;16.90;26.25;68630.97;4997269;28;45718;-94
2023/03/01 14:12:50;;;;;;;;;32.00;31.00;;;;;17.16;26.33;68607.78;4996085;28;45494;-95
2023/03/01 14:15:46;;;;;;;;;30.33;25.00;;;;;16.50;26.66;68521.22;4979380;28;45496;-94
2023/03/01 14:18:29;;;;;;;;;25.00;21.67;;;;;17.41;26.32;68618.69;4973941;28;45454;-93
2023/03/01 14:21:13;;;;;;;;;27.33;23.00;;;;;16.66;26.58;68590.91;4980764;28;45340;-94
2023/03/01 14:23:41;;;;;;;;;24.33;24.33;;;;;16.43;26.74;68724.34;4993197;28;45404;-92
2023/03/01 14:26:08;;;;;;;;;28.33;24.33;;;;;15.17;26.45;68439.78;4993284;28;45599;-93
2023/03/01 14:28:38;;;;;;;;;23.33;23.00;;;;;16.19;26.89;68507.03;4996123;28;45531;-93
2023/03/01 14:31:37;;;;;;;;;26.67;26.00;;;;;15.43;27.19;68509.38;5000159;28;45591;-93
2023/03/01 14:34:03;;;;;;;;;28.33;25.67;;;;;15.23;27.08;68459.59;4998578;28;46922;-94
2023/03/01 14:36:39;;;;;;;;;33.00;24.33;;;;;15.40;27.28;68492.47;4981696;28;45463;-92
2023/03/01 14:39:19;;;;;;;;;30.00;29.00;;;;;15.46;27.51;68355.13;4980190;28;45464;-93
2023/03/01 14:42:15;;;;;;;;;23.67;23.67;;;;;14.13;27.80;68361.53;4978379;28;45614;-93
2023/03/01 14:49:57;;;;;;;;;28.67;27.67;;;;;15.24;28.17;68481.50;5528148;22;46568;-93
2023/03/01 14:54:57;;;;;;;;;26.33;26.00;;;;;15.91;28.03;68335.78;5647894;22;45619;-91
2023/03/01 14:57:25;;;;;;;;;29.33;26.00;;;;;15.15;28.52;68384.13;5018196;28;45893;-92
2023/03/01 14:59:54;;;;;;;;;28.33;23.67;;;;;14.49;28.65;68281.19;5019013;28;45400;-91
2023/03/01 15:02:31;;;;;;;;;30.00;26.33;;;;;14.62;28.63;68409.81;5018280;28;45238;-92
2023/03/01 15:05:26;;;;;;;;;26.67;22.67;;;;;15.56;28.71;68524.16;5016067;28;45455;-94
2023/03/01 15:14:41;;;;;;;;;27.33;24.33;;;;;15.22;29.15;68471.13;4977089;28;46038;-93
2023/03/01 15:24:25;;;;;;;;;20.33;18.67;;;;;13.60;29.42;68311.19;5164577;22;46450;-93
2023/03/01 15:27:23;;;;;;;;;23.67;22.67;;;;;14.83;29.71;68428.78;5019796;28;45570;-92
2023/03/01 15:36:53;;;;;;;;;31.00;26.67;;;;;14.59;30.28;68654.34;4998947;28;45505;-92
2023/03/01 15:39:52;;;;;;;;;35.00;31.00;;;;;14.51;30.45;68400.00;4971429;28;45625;-92
2023/03/01 15:42:42;;;;;;;;;28.67;23.67;;;;;14.09;30.72;68322.81;4999249;28;45574;-93
2023/03/01 15:45:39;;;;;;;;;24.00;20.00;;;;;13.57;30.64;68336.84;4998523;28;45478;-94
2023/03/01 15:48:20;;;;;;;;;35.00;29.75;;;;;13.34;30.90;68549.19;4998905;28;45358;-92
2023/03/01 15:51:12;;;;;;;;;21.00;21.00;;;;;12.13;30.59;68403.19;4999669;28;45320;-90
2023/03/01 15:56:12;;;;;;;;;34.33;29.67;;;;;11.39;30.73;68055.72;5003949;22;71718;-91
2023/03/01 16:01:22;;;;;;;;;25.67;24.33;;;;;11.86;31.05;67939.94;4996489;28;46237;-92
2023/03/01 16:04:05;;;;;;;;;28.33;23.33;;;;;13.00;31.16;68225.41;4998388;28;45419;-93
2023/03/01 16:06:33;;;;;;;;;26.00;23.33;;;;;12.63;31.29;68108.56;4998814;28;45498;-91
2023/03/01 16:09:02;;;;;;;;;25.67;23.33;;;;;13.00;31.37;68127.81;4999266;28;45320;-95
2023/03/01 16:11:36;;;;;;;;;29.67;23.67;;;;;12.23;31.83;68190.34;5000151;28;45494;-92
2023/03/01 16:14:02;;;;;;;;;29.00;26.67;;;;;13.22;31.67;68285.94;4997549;28;47273;-94
2023/03/01 16:16:30;;;;;;;;;32.00;25.33;;;;;12.68;31.84;68196.69;4998449;28;45428;-93
2023/03/01 16:19:01;;;;;;;;;23.00;21.67;;;;;12.59;31.82;68321.91;4998499;28;45385;-94
2023/03/01 16:28:14;;;;;;;;;27.67;24.00;;;;;13.12;31.66;68276.19;5002632;22;45408;-87
2023/03/01 16:30:39;;;;;;;;;25.33;24.00;;;;;12.17;31.92;68177.94;5007504;28;45462;-87
2023/03/01 16:33:08;;;;;;;;;22.33;22.33;;;;;13.04;32.05;68320.38;4989374;28;45522;-87
2023/03/01 16:35:38;;;;;;;;;24.00;23.33;;;;;12.06;32.25;68164.94;4995536;28;45441;-87
2023/03/01 16:38:04;;;;;;;;;21.00;19.67;;;;;12.55;32.09;68152.16;5014453;28;45379;-86
2023/03/01 16:40:29;;;;;;;;;27.67;25.33;;;;;12.51;32.17;68163.34;4997948;28;45343;-86
2023/03/01 16:43:00;;;;;;;;;24.00;22.00;;;;;12.73;32.30;68263.63;4995395;28;45860;-87
2023/03/01 16:45:35;;;;;;;;;17.33;17.33;;;;;12.62;32.34;68219.38;4988635;28;46337;-87
2023/03/01 16:48:01;;;;;;;;;24.67;20.00;;;;;11.80;32.43;68134.75;4986774;28;45340;-91
2023/03/01 16:50:26;;;;;;;;;22.00;19.67;;;;;12.12;32.70;68172.03;4973640;28;45838;-90
2023/03/01 16:52:52;;;;;;;;;23.67;21.67;;;;;10.98;32.40;68109.59;4974773;28;45550;-89
2023/03/01 16:55:17;;;;;;;;;27.00;20.67;;;;;10.83;32.92;68046.28;4990788;28;45658;-86
2023/03/01 16:57:43;;;;;;;;;23.33;18.67;;;;;10.32;32.56;68196.56;4996440;28;45487;-86
2023/03/01 17:00:12;;;;;;;;;29.75;29.50;;;;;10.70;32.92;67992.47;4996267;28;45433;-86
2023/03/01 17:02:39;;;;;;;;;21.67;18.67;;;;;10.77;32.91;68053.03;4997938;28;45537;-94
2023/03/01 17:05:05;;;;;;;;;25.67;22.33;;;;;12.04;33.19;68157.28;5001863;28;47413;-94
2023/03/01 17:07:33;;;;;;;;;25.33;24.33;;;;;10.73;33.20;68009.22;4989907;28;46541;-95
2023/03/01 17:10:02;;;;;;;;;24.67;22.67;;;;;11.19;32.80;67985.66;5006675;28;45336;-94
2023/03/01 17:12:28;;;;;;;;;24.67;22.00;;;;;10.41;33.42;67976.72;4995579;28;45407;-94
2023/03/01 17:14:53;;;;;;;;;26.33;24.67;;;;;11.76;33.43;68124.72;4983976;28;47169;-95
2023/03/01 17:17:19;;;;;;;;;24.00;21.33;;;;;11.24;33.73;68028.00;4987051;28;45351;-95
2023/03/01 17:19:44;;;;;;;;;26.50;23.25;;;;;10.24;33.88;67978.94;4983107;28;45414;-95
2023/03/01 17:22:12;;;;;;;;;26.33;24.67;;;;;11.57;33.62;68148.47;4981329;28;45431;-94
2023/03/01 17:24:39;;;;;;;;;27.00;23.67;;;;;11.48;34.17;68110.75;4981129;28;48260;-94
2023/03/01 17:27:05;;;;;;;;;26.50;24.00;;;;;8.88;33.67;67986.00;5014433;28;46108;-96
2023/03/01 17:29:31;;;;;;;;;26.33;23.67;;;;;8.81;33.99;68069.41;5018293;28;45533;-96
2023/03/01 17:31:57;;;;;;;;;27.00;23.33;;;;;10.05;33.96;68228.56;4981785;28;45556;-95
2023/03/01 17:34:23;;;;;;;;;24.50;22.75;;;;;9.03;34.40;67688.78;4995576;28;47861;-96
2023/03/01 17:36:49;;;;;;;;;26.00;21.00;;;;;8.99;34.22;68019.53;5007680;28;44781;-96
2023/03/01 17:39:15;;;;;;;;;24.00;22.00;;;;;9.84;34.38;67930.25;4979202;28;45459;-95
2023/03/01 17:41:42;;;;;;;;;29.50;26.50;;;;;8.90;34.25;67969.34;4987756;28;45538;-96
2023/03/01 17:44:07;;;;;;;;;27.25;25.00;;;;;9.26;34.56;67923.66;5044558;22;48628;-96
2023/03/01 17:49:48;;;;;;;;;27.00;26.75;;;;;9.87;34.60;67846.66;5043125;22;45401;-87
2023/03/01 17:52:14;;;;;;;;;28.00;24.25;;;;;9.40;34.86;68013.47;5034971;28;45458;-86
2023/03/01 17:54:39;;;;;;;;;31.50;27.00;;;;;10.94;34.37;67987.88;5027109;28;46214;-86
2023/03/01 17:57:05;;;;;;;;;32.50;26.25;;;;;10.59;34.69;68011.19;5021722;28;45393;-86
2023/03/01 17:59:32;;;;;;;;;24.50;23.00;;;;;10.25;34.56;67881.78;5040080;28;45393;-86
2023/03/01 18:02:00;;;;;;;;;30.50;26.00;;;;;10.31;34.52;67954.94;5017820;28;45558;-86
2023/03/01 18:04:25;;;;;;;;;24.50;22.50;;;;;10.39;34.98;68009.28;5024023;28;45587;-87
2023/03/01 18:06:51;;;;;;;;;29.50;25.25;;;;;10.34;34.73;67972.25;5035474;28;45628;-88
2023/03/01 18:09:16;;;;;;;;;32.75;24.50;;;;;9.72;34.82;67797.31;5039579;28;45386;-88
2023/03/01 18:11:43;;;;;;;;;23.75;22.50;;;;;10.42;35.11;68023.44;5033617;28;45299;-88
2023/03/01 18:14:08;;;;;;;;;30.25;25.75;;;;;10.28;35.32;67991.63;5039568;28;45388;-87
2023/03/01 18:16:34;;;;;;;;;27.75;27.00;;;;;10.26;35.29;67986.00;5036407;28;45633;-88
2023/03/01 18:19:00;;;;;;;;;29.50;25.75;;;;;10.55;35.12;68017.63;5027245;28;45565;-88
2023/03/01 18:21:27;;;;;;;;;28.25;27.00;;;;;10.30;35.23;67951.09;5011671;28;45628;-88
2023/03/01 18:23:53;;;;;;;;;28.00;23.25;;;;;10.43;35.55;68010.78;5017751;28;46141;-88
2023/03/01 18:26:21;;;;;;;;;35.50;28.00;;;;;10.20;35.17;67974.22;5024806;28;45948;-88
2023/03/01 18:28:47;;;;;;;;;36.25;30.00;;;;;9.45;35.75;68024.66;5029238;28;45443;-87
2023/03/01 18:31:17;;;;;;;;;34.25;28.25;;;;;9.47;35.30;67723.56;5018031;28;45569;-87
2023/03/01 18:33:44;;;;;;;;;32.25;30.00;;;;;10.34;35.15;68001.34;5022554;28;46444;-87
2023/03/01 18:36:22;;;;;;;;;26.50;26.50;;;;;9.89;35.60;67911.81;5030785;28;45469;-87
2023/03/01 18:38:48;;;;;;;;;25.50;22.75;;;;;10.26;35.70;68017.72;5024414;28;45485;-87
2023/03/01 18:41:14;;;;;;;;;31.50;28.25;;;;;10.07;35.29;67974.72;5028442;28;45546;-88
2023/03/01 18:43:39;;;;;;;;;33.50;30.25;;;;;10.02;35.49;67989.94;5037572;28;45402;-87
2023/03/01 18:46:05;;;;;;;;;32.25;29.00;;;;;10.18;35.49;67971.84;5025508;28;45560;-87
2023/03/01 18:48:31;;;;;;;;;28.75;26.75;;;;;9.34;35.77;67882.38;5019332;28;45686;-87
2023/03/01 18:50:56;;;;;;;;;33.25;28.25;;;;;10.12;35.53;67893.44;5001581;28;46256;-87
2023/03/01 18:53:22;;;;;;;;;37.50;30.75;;;;;8.66;35.51;67675.41;5022113;28;48013;-88
2023/03/01 18:55:48;;;;;;;;;37.75;31.75;;;;;9.58;35.93;67867.91;5023287;28;45456;-87
2023/03/01 18:58:13;;;;;;;;;36.75;30.50;;;;;9.74;35.98;67963.34;5012970;28;45554;-88
2023/03/01 19:00:39;;;;;;;;;32.75;26.50;;;;;8.86;36.23;68101.69;5009032;28;45547;-88
2023/03/01 19:03:04;;;;;;;;;32.25;31.25;;;;;8.69;36.13;67841.75;5020366;28;46071;-88
2023/03/01 19:05:30;;;;;;;;;36.25;32.50;;;;;8.88;36.41;68082.97;5026854;28;45564;-86
2023/03/01 19:07:56;;;;;;;;;37.50;30.50;;;;;8.52;35.94;67741.19;5023854;28;45613;-87
2023/03/01 19:10:22;;;;;;;;;34.75;31.50;;;;;8.93;36.09;67988.13;5027061;28;45391;-86
2023/03/01 19:12:48;;;;;;;;;33.25;30.75;;;;;8.68;36.09;68036.16;5018035;28;46210;-88
2023/03/01 19:15:15;;;;;;;;;34.75;29.75;;;;;8.48;36.11;67822.84;5030521;28;45639;-87
2023/03/01 19:17:43;;;;;;;;;30.25;27.25;;;;;9.05;35.75;68065.59;5034438;28;45572;-87
2023/03/01 19:20:09;;;;;;;;;28.75;27.00;;;;;8.53;36.53;67757.59;5026835;28;45600;-87
2023/03/01 19:22:35;;;;;;;;;30.00;28.00;;;;;9.13;36.13;67988.03;5013419;28;48197;-87
2023/03/01 19:25:00;;;;;;;;;31.00;28.25;;;;;8.95;36.39;67838.16;5027397;28;45336;-87
2023/03/01 19:27:25;;;;;;;;;48.00;37.75;;;;;8.43;35.84;67799.66;5023187;28;46092;-86
2023/03/01 19:29:51;;;;;;;;;59.75;48.00;;;;;9.62;35.95;67936.56;5023841;28;45555;-86
2023/03/01 19:32:16;;;;;;;;;34.50;31.50;;;;;9.31;36.01;67905.81;5017389;28;46097;-87
2023/03/01 19:34:41;;;;;;;;;41.50;31.50;;;;;9.19;36.14;67794.66;5017558;28;45397;-87
2023/03/01 19:37:08;;;;;;;;;38.50;33.75;;;;;8.69;36.37;67713.19;5030012;28;45873;-87
2023/03/01 19:39:34;;;;;;;;;31.00;28.75;;;;;8.62;36.43;67800.41;5020909;28;45197;-88
2023/03/01 19:42:00;;;;;;;;;32.50;27.00;;;;;9.60;36.62;67865.56;5024142;28;46705;-87
2023/03/01 19:44:25;;;;;;;;;32.00;29.25;;;;;8.09;36.39;67983.94;5016858;28;45513;-87
2023/03/01 19:46:52;;;;;;;;;30.00;27.50;;;;;8.84;36.37;68028.72;5023840;28;45799;-87
2023/03/01 19:49:18;;;;;;;;;33.00;29.25;;;;;9.23;36.40;67891.09;5019721;28;45619;-87
2023/03/01 19:51:43;;;;;;;;;32.00;30.75;;;;;7.40;36.46;67593.81;5004309;28;47311;-87
2023/03/01 19:54:10;;;;;;;;;26.75;25.00;;;;;8.68;36.50;67764.13;5010750;28;45926;-88
2023/03/01 19:56:36;;;;;;;;;28.25;27.25;;;;;9.00;36.83;67951.56;5013185;28;45400;-87
2023/03/01 19:59:03;;;;;;;;;30.50;30.25;;;;;9.36;36.37;67919.03;5026665;28;45470;-87
2023/03/01 20:01:31;;;;;;;;;32.50;30.25;;;;;9.47;36.60;67887.75;4999684;28;47400;-94
2023/03/01 20:03:57;;;;;;;;;31.50;30.75;;;;;9.43;36.74;67962.19;5002732;28;45699;-86
2023/03/01 20:06:28;;;;;;;;;35.50;31.00;;;;;8.75;36.85;67859.34;5036996;28;45484;-96
2023/03/01 20:08:54;;;;;;;;;32.75;30.25;;;;;9.36;36.99;67932.81;5008218;28;45179;-96
2023/03/01 20:30:27;;;;;;;;;33.25;30.50;;;;;8.89;38.21;68039.31;5018908;22;45240;-94
2023/03/01 20:35:34;;;;;;;;;32.25;31.50;;;;;8.03;38.35;67800.47;5334303;22;74070;-88
2023/03/01 20:38:39;;;;;;;;;;;;;;;;;;;;;
2023/03/01 20:46:12;;;;;;;;;32.25;29.75;;;;;8.55;38.21;68012.91;5014450;28;45343;-85
2023/03/01 20:48:41;;;;;;;;;40.75;32.25;;;;;8.20;38.36;67794.19;4998752;28;45313;-88
2023/03/01 20:51:08;;;;;;;;;41.75;33.75;;;;;8.41;38.40;67812.53;5011021;28;45442;-89
2023/03/01 20:53:34;;;;;;;;;34.00;32.75;;;;;8.55;38.50;67660.41;4995615;28;45579;-88
2023/03/01 20:56:04;;;;;;;;;36.00;30.75;;;;;8.40;38.32;67795.53;4995091;28;47250;-85
2023/03/01 20:58:34;;;;;;;;;36.25;32.25;;;;;8.10;38.78;67721.22;4978953;28;45322;-85